This is the latest recevied weather packets stored in our database for station/object KD8YBJ. If no packets are shown the sender has not sent any weather packets the latest 10 day(s).
| Time | Temp. | Humidity | Pressure | Rain* | Wind** | Luminosity | Snow |
|---|---|---|---|---|---|---|---|
| 1778032817 | 6.11° C | 68% | 1009.8 hPa | 0 mm | - | 0 W/m² | - |
| 1778028618 | 8.89° C | 53% | 1009.2 hPa | 0 mm | - | 2 W/m² | - |
| 1778028035 | 8.89° C | 52% | 1009 hPa | 0 mm | - | 4 W/m² | - |
| 1778022617 | 10.56° C | 47% | 1008.6 hPa | 0 mm | - | 151 W/m² | - |
| 1778020838 | 10° C | 47% | 1008.8 hPa | 0 mm | - | 139 W/m² | - |
| 1778019018 | 10.56° C | 45% | 1008.7 hPa | 0 mm | - | 160 W/m² | - |
| 1778016618 | 11.11° C | 45% | 1008.7 hPa | 0 mm | - | 286 W/m² | - |
| 1778006420 | 11.67° C | 44% | 1007.8 hPa | 0 mm | - | 714 W/m² | - |
| 1778004616 | 11.67° C | 43% | 1008.5 hPa | 0 mm | - | 471 W/m² | - |
| 1778001616 | 11.67° C | 42% | 1007.7 hPa | 0 mm | - | 637 W/m² | - |
| 1777999817 | 11.11° C | 43% | 1007.5 hPa | 0 mm | - | 832 W/m² | - |
| 1777999217 | 11.67° C | 44% | 1007.4 hPa | 0 mm | - | 824 W/m² | - |
| 1777998018 | 10.56° C | 45% | 1007.2 hPa | 0 mm | - | 779 W/m² | - |
| 1777990816 | 10° C | 43% | 1007.6 hPa | 0 mm | - | 127 W/m² | - |
| 1777980617 | 7.78° C | 72% | 1005.5 hPa | 0 mm | - | 24 W/m² | - |
| 1777980059 | 7.78° C | 76% | 1005.4 hPa | 0 mm | - | 21 W/m² | - |
| 1777976418 | 6.67° C | 82% | 1004.5 hPa | 0 mm | - | 0 W/m² | - |
| 1777975859 | 7.22° C | 80% | 1004.2 hPa | 0 mm | - | 0 W/m² | - |
| 1777971616 | 7.22° C | 81% | 1002.7 hPa | 0 mm | - | 0 W/m² | - |
| 1777965637 | 12.22° C | 56% | 1000.9 hPa | 0 mm | - | 0 W/m² | - |
| 1777965018 | 12.22° C | 54% | 1000.8 hPa | 0 mm | - | 0 W/m² | - |
| 1777964417 | 12.22° C | 53% | 1000.8 hPa | 0 mm | - | 0 W/m² | - |
| 1777959016 | 13.89° C | 51% | 1000.1 hPa | 0 mm | - | 0 W/m² | - |
| 1777957817 | 12.22° C | 75% | 1000.1 hPa | 0 mm | - | 0 W/m² | - |
| 1777955437 | 12.78° C | 76% | 999.1 hPa | 0 mm | - | 0 W/m² | - |
* Rain latest hour (hover to see other rain measurements)
** Current wind speed in m/s (hover to see current wind gust speed)